This is the latest recevied weather packets stored in our database for station/object N4OGP-WX. If no packets are shown the sender has not sent any weather packets the latest 10 day(s).
| Time | Temp. | Humidity | Pressure | Rain* | Wind** | Luminosity | Snow |
|---|---|---|---|---|---|---|---|
| 1777648101 | 20.56° C | 85% | 1010.8 hPa | 0 mm | - | - | - |
| 1777648011 | 23.89° C | 42% | 1020.4 hPa | 0 mm | - | - | - |
| 1777647951 | 20.56° C | 86% | 1010.8 hPa | 0 mm | - | - | - |
| 1777647891 | 20.56° C | 86% | 1010.7 hPa | 0 mm | - | - | - |
| 1777647801 | 23.89° C | 42% | 1020.4 hPa | 0 mm | - | - | - |
| 1777647711 | 20.56° C | 86% | 1010.7 hPa | 0 mm | - | - | - |
| 1777647651 | 20.56° C | 86% | 1010.7 hPa | 0 mm | - | - | - |
| 1777647591 | 23.89° C | 42% | 1020.4 hPa | 0 mm | - | - | - |
| 1777647531 | 20.56° C | 86% | 1010.5 hPa | 0 mm | - | - | - |
| 1777647471 | 23.89° C | 42% | 1020.4 hPa | 0 mm | - | - | - |
| 1777647411 | 20.56° C | 85% | 1010.6 hPa | 0 mm | - | - | - |
| 1777647351 | 20.56° C | 85% | 1010.6 hPa | 0 mm | - | - | - |
| 1777647291 | 23.89° C | 42% | 1020.4 hPa | 0 mm | - | - | - |
| 1777647231 | 20.56° C | 85% | 1010.6 hPa | 0 mm | - | - | - |
| 1777647171 | 23.89° C | 42% | 1020.4 hPa | 0 mm | - | - | - |
| 1777647081 | 20.56° C | 85% | 1010.5 hPa | 0 mm | - | - | - |
| 1777647021 | 23.89° C | 42% | 1020.4 hPa | 0 mm | - | - | - |
| 1777646961 | 23.89° C | 42% | 1020.4 hPa | 0 mm | - | - | - |
| 1777646901 | 20.56° C | 85% | 1010.4 hPa | 0 mm | - | - | - |
| 1777646841 | 23.89° C | 42% | 1020.4 hPa | 0 mm | - | - | - |
| 1777646781 | 20.56° C | 85% | 1010.5 hPa | 0 mm | - | - | - |
| 1777646721 | 20.56° C | 84% | 1010.5 hPa | 0 mm | - | - | - |
| 1777646661 | 23.89° C | 42% | 1020.4 hPa | 0 mm | - | - | - |
| 1777646601 | 23.89° C | 42% | 1020.4 hPa | 0 mm | - | - | - |
| 1777646511 | 23.89° C | 42% | 1020.4 hPa | 0 mm | - | - | - |
* Rain latest hour (hover to see other rain measurements)
** Current wind speed in m/s (hover to see current wind gust speed)